Time,TemperatureF,DewpointF,PressureIn,WindDirection,WindDirectionDegrees,WindSpeedMPH,WindSpeedGustMPH,Humidity,HourlyPrecipIn,Conditions,Clouds,dailyrainin,SolarRadiationWatts/m^2,SoftwareType,DateUTC
2013-04-29 00:05:00,76.9,72.0,29.96,East,79,6.0,13.0,84,0.01,,,0.01,0,weatherlink.com 1.10,2013-04-29 04:05:00,
2013-04-29 00:20:00,74.6,71.0,29.95,ENE,76,2.0,9.0,87,0.14,,,0.14,0,weatherlink.com 1.10,2013-04-29 04:20:00,
2013-04-29 00:35:00,74.5,71.0,29.95,ENE,76,2.0,4.0,89,0.14,,,0.14,0,weatherlink.com 1.10,2013-04-29 04:35:00,
2013-04-29 00:50:00,74.7,72.0,29.94,ENE,76,0.0,1.0,91,0.16,,,0.16,0,weatherlink.com 1.10,2013-04-29 04:50:00,
2013-04-29 01:05:00,74.8,72.0,29.94,ENE,76,0.0,0.0,91,0.13,,,0.16,0,weatherlink.com 1.10,2013-04-29 05:05:00,
2013-04-29 01:20:00,75.1,73.0,29.94,ENE,76,0.0,1.0,92,0.02,,,0.16,0,weatherlink.com 1.10,2013-04-29 05:20:00,
2013-04-29 01:35:00,75.1,73.0,29.94,ENE,76,0.0,1.0,92,0.02,,,0.16,0,weatherlink.com 1.10,2013-04-29 05:35:00,
2013-04-29 01:50:00,75.1,73.0,29.93,ENE,76,0.0,1.0,92,0.00,,,0.16,0,weatherlink.com 1.10,2013-04-29 05:50:00,
2013-04-29 02:05:00,75.0,73.0,29.93,ENE,76,0.0,2.0,92,0.00,,,0.16,0,weatherlink.com 1.10,2013-04-29 06:05:00,
2013-04-29 02:20:00,74.8,72.0,29.93,ENE,76,0.0,3.0,91,0.00,,,0.16,0,weatherlink.com 1.10,2013-04-29 06:20:00,
2013-04-29 02:36:00,74.7,72.0,29.92,ENE,76,0.0,2.0,92,0.00,,,0.16,0,weatherlink.com 1.10,2013-04-29 06:36:00,
2013-04-29 02:51:00,74.6,72.0,29.92,ENE,76,0.0,2.0,92,0.00,,,0.16,0,weatherlink.com 1.10,2013-04-29 06:51:00,
2013-04-29 03:06:00,74.6,72.0,29.92,ENE,76,0.0,2.0,92,0.00,,,0.16,0,weatherlink.com 1.10,2013-04-29 07:06:00,
2013-04-29 03:21:00,74.4,72.0,29.92,ENE,76,1.0,1.0,92,0.00,,,0.16,0,weatherlink.com 1.10,2013-04-29 07:21:00,
2013-04-29 03:36:00,74.0,71.0,29.92,SE,129,0.0,2.0,91,0.00,,,0.16,0,weatherlink.com 1.10,2013-04-29 07:36:00,
2013-04-29 03:51:00,74.1,71.0,29.92,SE,129,0.0,3.0,91,0.00,,,0.16,0,weatherlink.com 1.10,2013-04-29 07:51:00,
2013-04-29 04:06:00,74.2,72.0,29.92,SE,129,0.0,2.0,91,0.00,,,0.16,0,weatherlink.com 1.10,2013-04-29 08:06:00,
2013-04-29 04:21:00,74.3,72.0,29.92,SE,129,0.0,2.0,91,0.00,,,0.16,0,weatherlink.com 1.10,2013-04-29 08:21:00,
2013-04-29 04:36:00,74.2,71.0,29.91,SE,129,0.0,3.0,90,0.00,,,0.16,0,weatherlink.com 1.10,2013-04-29 08:36:00,
2013-04-29 04:51:00,74.1,71.0,29.91,SE,129,0.0,2.0,90,0.00,,,0.16,0,weatherlink.com 1.10,2013-04-29 08:51:00,
2013-04-29 05:06:00,74.0,71.0,29.92,SE,129,0.0,2.0,91,0.00,,,0.16,0,weatherlink.com 1.10,2013-04-29 09:06:00,
2013-04-29 05:21:00,73.9,71.0,29.92,SE,129,2.0,2.0,90,0.00,,,0.16,0,weatherlink.com 1.10,2013-04-29 09:21:00,
2013-04-29 05:36:00,73.8,71.0,29.92,SE,129,0.0,2.0,91,0.00,,,0.16,0,weatherlink.com 1.10,2013-04-29 09:36:00,
2013-04-29 05:51:00,73.8,71.0,29.93,SE,129,0.0,1.0,91,0.00,,,0.16,0,weatherlink.com 1.10,2013-04-29 09:51:00,
2013-04-29 06:06:00,73.6,71.0,29.93,SE,129,0.0,2.0,91,0.00,,,0.16,9,weatherlink.com 1.10,2013-04-29 10:06:00,
2013-04-29 06:21:00,73.7,71.0,29.93,SE,129,0.0,4.0,91,0.00,,,0.16,23,weatherlink.com 1.10,2013-04-29 10:21:00,
2013-04-29 06:36:00,74.2,72.0,29.94,SE,133,0.0,3.0,91,0.00,,,0.16,79,weatherlink.com 1.10,2013-04-29 10:36:00,
2013-04-29 06:51:00,74.8,72.0,29.94,SE,133,2.0,3.0,90,0.00,,,0.16,130,weatherlink.com 1.10,2013-04-29 10:51:00,
2013-04-29 07:06:00,75.5,72.0,29.95,ESE,115,2.0,9.0,89,0.00,,,0.16,202,weatherlink.com 1.10,2013-04-29 11:06:00,
2013-04-29 07:21:00,76.5,72.0,29.95,East,90,5.0,8.0,85,0.00,,,0.16,251,weatherlink.com 1.10,2013-04-29 11:21:00,
2013-04-29 07:36:00,77.8,72.0,29.95,East,88,2.0,7.0,83,0.00,,,0.16,295,weatherlink.com 1.10,2013-04-29 11:36:00,
2013-04-29 07:51:00,78.9,73.0,29.96,ENE,76,5.0,8.0,81,0.00,,,0.16,417,weatherlink.com 1.10,2013-04-29 11:51:00,
2013-04-29 08:06:00,79.7,73.0,29.96,East,94,3.0,10.0,81,0.00,,,0.16,445,weatherlink.com 1.10,2013-04-29 12:06:00,
2013-04-29 08:21:00,80.5,73.0,29.96,East,85,2.0,9.0,79,0.00,,,0.16,480,weatherlink.com 1.10,2013-04-29 12:21:00,
2013-04-29 08:36:00,81.2,73.0,29.96,ENE,67,5.0,10.0,77,0.00,,,0.16,533,weatherlink.com 1.10,2013-04-29 12:36:00,
2013-04-29 08:51:00,82.0,74.0,29.96,ESE,107,4.0,9.0,77,0.00,,,0.16,605,weatherlink.com 1.10,2013-04-29 12:51:00,
2013-04-29 09:06:00,82.9,75.0,29.97,ESE,111,5.0,10.0,76,0.00,,,0.16,613,weatherlink.com 1.10,2013-04-29 13:06:00,
2013-04-29 09:21:00,83.6,75.0,29.97,East,88,9.0,11.0,74,0.00,,,0.16,715,weatherlink.com 1.10,2013-04-29 13:21:00,
2013-04-29 09:37:00,83.6,74.0,29.98,NE,50,1.0,13.0,73,0.00,,,0.16,733,weatherlink.com 1.10,2013-04-29 13:37:00,
2013-04-29 09:52:00,83.5,74.0,29.98,ENE,61,8.0,16.0,73,0.00,,,0.16,772,weatherlink.com 1.10,2013-04-29 13:52:00,
2013-04-29 10:07:00,83.6,74.0,29.98,ENE,67,9.0,16.0,73,0.00,,,0.16,803,weatherlink.com 1.10,2013-04-29 14:07:00,
2013-04-29 10:22:00,84.1,74.0,29.98,ENE,71,12.0,16.0,72,0.00,,,0.16,833,weatherlink.com 1.10,2013-04-29 14:22:00,
2013-04-29 10:37:00,84.4,74.0,29.98,ENE,70,10.0,14.0,72,0.00,,,0.16,863,weatherlink.com 1.10,2013-04-29 14:37:00,
2013-04-29 10:52:00,84.2,74.0,29.97,NNE,24,6.0,15.0,72,0.00,,,0.16,889,weatherlink.com 1.10,2013-04-29 14:52:00,
2013-04-29 11:07:00,84.5,74.0,29.97,NE,49,6.0,13.0,71,0.00,,,0.16,911,weatherlink.com 1.10,2013-04-29 15:07:00,
2013-04-29 11:22:00,84.4,74.0,29.97,NE,44,6.0,16.0,70,0.00,,,0.16,930,weatherlink.com 1.10,2013-04-29 15:22:00,
2013-04-29 11:37:00,85.5,75.0,29.97,ENE,64,10.0,18.0,71,0.00,,,0.16,939,weatherlink.com 1.10,2013-04-29 15:37:00,
2013-04-29 11:52:00,85.3,75.0,29.97,East,86,5.0,16.0,70,0.00,,,0.16,951,weatherlink.com 1.10,2013-04-29 15:52:00,
2013-04-29 12:07:00,84.7,73.0,29.96,ENE,78,3.0,16.0,69,0.00,,,0.16,483,weatherlink.com 1.10,2013-04-29 16:07:00,
2013-04-29 12:22:00,85.0,74.0,29.96,NNE,22,11.0,18.0,70,0.00,,,0.16,965,weatherlink.com 1.10,2013-04-29 16:22:00,
2013-04-29 12:37:00,85.3,74.0,29.96,ENE,74,10.0,16.0,69,0.00,,,0.16,997,weatherlink.com 1.10,2013-04-29 16:37:00,
2013-04-29 12:52:00,85.8,74.0,29.95,ENE,69,8.0,16.0,67,0.00,,,0.16,977,weatherlink.com 1.10,2013-04-29 16:52:00,
2013-04-29 13:07:00,86.5,74.0,29.95,East,81,9.0,18.0,66,0.00,,,0.16,967,weatherlink.com 1.10,2013-04-29 17:07:00,
2013-04-29 13:22:00,86.9,74.0,29.95,ENE,75,5.0,16.0,65,0.00,,,0.16,969,weatherlink.com 1.10,2013-04-29 17:22:00,
2013-04-29 13:37:00,86.8,74.0,29.93,ENE,78,8.0,16.0,66,0.00,,,0.16,925,weatherlink.com 1.10,2013-04-29 17:37:00,
2013-04-29 13:52:00,86.3,73.0,29.93,East,86,10.0,16.0,65,0.00,,,0.16,902,weatherlink.com 1.10,2013-04-29 17:52:00,
2013-04-29 14:07:00,86.3,75.0,29.92,NE,48,6.0,17.0,68,0.00,,,0.16,891,weatherlink.com 1.10,2013-04-29 18:07:00,
2013-04-29 14:22:00,85.7,74.0,29.93,East,83,7.0,18.0,68,0.00,,,0.16,424,weatherlink.com 1.10,2013-04-29 18:22:00,
2013-04-29 14:37:00,84.2,74.0,29.92,ENE,66,5.0,14.0,71,0.00,,,0.16,501,weatherlink.com 1.10,2013-04-29 18:37:00,
2013-04-29 14:52:00,84.5,74.0,29.93,ENE,63,9.0,16.0,71,0.00,,,0.16,330,weatherlink.com 1.10,2013-04-29 18:52:00,
2013-04-29 15:07:00,82.3,73.0,29.93,ENE,65,11.0,19.0,73,0.00,,,0.16,197,weatherlink.com 1.10,2013-04-29 19:07:00,
2013-04-29 15:22:00,81.9,73.0,29.93,ENE,67,10.0,17.0,74,0.00,,,0.16,178,weatherlink.com 1.10,2013-04-29 19:22:00,
2013-04-29 15:37:00,81.7,73.0,29.92,NW,313,5.0,15.0,75,0.00,,,0.16,216,weatherlink.com 1.10,2013-04-29 19:37:00,
2013-04-29 15:52:00,81.8,73.0,29.91,NE,45,13.0,16.0,75,0.00,,,0.16,339,weatherlink.com 1.10,2013-04-29 19:52:00,
2013-04-29 16:07:00,82.2,74.0,29.92,NE,53,6.0,15.0,76,0.00,,,0.16,329,weatherlink.com 1.10,2013-04-29 20:07:00,
2013-04-29 16:22:00,82.6,74.0,29.91,NE,55,10.0,17.0,75,0.00,,,0.16,332,weatherlink.com 1.10,2013-04-29 20:22:00,
2013-04-29 16:37:00,82.0,74.0,29.92,ENE,68,14.0,17.0,76,0.00,,,0.16,216,weatherlink.com 1.10,2013-04-29 20:37:00,
2013-04-29 16:52:00,82.6,74.0,29.92,East,94,9.0,16.0,75,0.00,,,0.16,229,weatherlink.com 1.10,2013-04-29 20:52:00,
2013-04-29 17:07:00,81.6,73.0,29.92,NE,51,12.0,21.0,75,0.00,,,0.16,330,weatherlink.com 1.10,2013-04-29 21:07:00,
2013-04-29 17:22:00,82.1,74.0,29.92,East,79,9.0,13.0,76,0.00,,,0.16,134,weatherlink.com 1.10,2013-04-29 21:22:00,
2013-04-29 17:37:00,81.3,73.0,29.92,NNE,15,11.0,17.0,76,0.00,,,0.16,221,weatherlink.com 1.10,2013-04-29 21:37:00,
2013-04-29 17:52:00,81.1,74.0,29.92,ENE,69,10.0,18.0,78,0.00,,,0.16,84,weatherlink.com 1.10,2013-04-29 21:52:00,
2013-04-29 18:07:00,80.7,73.0,29.93,East,81,6.0,17.0,78,0.00,,,0.16,47,weatherlink.com 1.10,2013-04-29 22:07:00,
2013-04-29 18:22:00,80.2,73.0,29.93,NE,42,7.0,16.0,79,0.00,,,0.16,25,weatherlink.com 1.10,2013-04-29 22:22:00,
2013-04-29 18:37:00,79.9,73.0,29.92,ENE,69,10.0,17.0,80,0.00,,,0.16,12,weatherlink.com 1.10,2013-04-29 22:37:00,
2013-04-29 18:52:00,79.5,73.0,29.92,NE,38,9.0,15.0,80,0.00,,,0.16,0,weatherlink.com 1.10,2013-04-29 22:52:00,
2013-04-29 19:07:00,79.4,73.0,29.93,East,94,10.0,16.0,81,0.00,,,0.16,0,weatherlink.com 1.10,2013-04-29 23:07:00,
2013-04-29 19:22:00,79.2,73.0,29.94,ENE,62,11.0,15.0,80,0.00,,,0.16,0,weatherlink.com 1.10,2013-04-29 23:22:00,
2013-04-29 19:37:00,79.2,73.0,29.94,ENE,59,9.0,13.0,82,0.00,,,0.16,0,weatherlink.com 1.10,2013-04-29 23:37:00,
2013-04-29 19:52:00,79.0,73.0,29.94,East,84,13.0,14.0,82,0.00,,,0.16,0,weatherlink.com 1.10,2013-04-29 23:52:00,
2013-04-29 20:07:00,79.1,73.0,29.95,ENE,74,7.0,15.0,81,0.00,,,0.16,0,weatherlink.com 1.10,2013-04-30 00:07:00,
2013-04-29 20:22:00,79.1,73.0,29.95,East,86,11.0,15.0,81,0.00,,,0.16,0,weatherlink.com 1.10,2013-04-30 00:22:00,
2013-04-29 20:37:00,79.1,73.0,29.96,ENE,69,5.0,14.0,82,0.00,,,0.16,0,weatherlink.com 1.10,2013-04-30 00:37:00,
2013-04-29 20:52:00,79.1,73.0,29.96,NE,50,7.0,12.0,82,0.00,,,0.16,0,weatherlink.com 1.10,2013-04-30 00:52:00,
2013-04-29 21:07:00,78.9,73.0,29.97,East,90,9.0,17.0,82,0.00,,,0.16,0,weatherlink.com 1.10,2013-04-30 01:07:00,
2013-04-29 21:22:00,78.9,73.0,29.97,ENE,67,7.0,12.0,82,0.00,,,0.16,0,weatherlink.com 1.10,2013-04-30 01:22:00,
2013-04-29 21:37:00,78.9,73.0,29.97,NE,53,9.0,15.0,82,0.00,,,0.16,0,weatherlink.com 1.10,2013-04-30 01:37:00,
2013-04-29 21:52:00,78.7,73.0,29.98,NE,53,9.0,11.0,83,0.00,,,0.16,0,weatherlink.com 1.10,2013-04-30 01:52:00,
2013-04-29 22:07:00,78.8,73.0,29.98,East,80,10.0,14.0,83,0.00,,,0.16,0,weatherlink.com 1.10,2013-04-30 02:07:00,
2013-04-29 22:22:00,78.7,74.0,29.98,ENE,78,9.0,14.0,84,0.00,,,0.16,0,weatherlink.com 1.10,2013-04-30 02:22:00,
2013-04-29 22:37:00,78.7,74.0,29.98,NE,54,9.0,13.0,84,0.00,,,0.16,0,weatherlink.com 1.10,2013-04-30 02:37:00,
2013-04-29 22:52:00,78.7,74.0,29.98,East,94,9.0,15.0,84,0.00,,,0.16,0,weatherlink.com 1.10,2013-04-30 02:52:00,
2013-04-29 23:07:00,78.6,73.0,29.97,ENE,67,11.0,19.0,83,0.00,,,0.16,0,weatherlink.com 1.10,2013-04-30 03:07:00,
2013-04-29 23:22:00,78.6,73.0,29.97,ENE,78,5.0,13.0,84,0.00,,,0.16,0,weatherlink.com 1.10,2013-04-30 03:22:00,
2013-04-29 23:37:00,78.5,73.0,29.97,NE,56,6.0,15.0,84,0.00,,,0.16,0,weatherlink.com 1.10,2013-04-30 03:37:00,
2013-04-29 23:52:00,78.6,73.0,29.97,ENE,58,4.0,13.0,84,0.00,,,0.16,0,weatherlink.com 1.10,2013-04-30 03:52:00,